Terminal Aerodrome Forecast
Issued by NWS

Home | Current Version | Previous Version | Text Only | Print | Product List | Glossary On
Versions: 1 2 3 4 5 6 7 8 9 10 11 12 13 14 15 16 17 18 19 20 21 22 23 24 25 26 27 28
000
FTUS43 KLOT 050520
TAFORD
TAF
KORD 050520Z 0506/0612 01013G21KT P6SM SCT060 BKN100
     FM051100 01012KT P6SM BKN050
     FM052000 04009KT P6SM FEW040
     FM060100 VRB03KT P6SM SCT250=

USA.gov is the U.S. government's official web portal to all federal, state and local government web resources and services.